Webb, Iowa
Current Conditions -  °F | °C
As of 9:53 PM on Thursday 18 Dec 2014 (Local Time) from KSPW Reporting Station
Overcast Overcast  
Wind Chill: -6°   Ceiling: 1500
Heat Index: -3°   Visibility: 10mi
Dew Point: -5°   Wind: 6mph
Humidity: 85%   Direction: 140°SE
Pressure: 30.21"   Gusts: NA
Location:  42.95°N, 95.01°W
Report Text: KSPW 190353Z AUTO 14005KT 10SM OVC015 M03/M05 A3021 RMK AO2 SLP249 T10281050 TSNO
Loading
Personal Weather Stations






























Interactive Weather Map New forecast layout! Learn more

10-Day Weather Forecast

Advertisements
Track Severe Weather on mobile